sensor_id;sensor_type;location;lat;lon;timestamp;P1;durP1;ratioP1;P2;durP2;ratioP2
11123;SDS011;5616;42.692;23.312;2024-01-15T00:02:04;129.05;;;55.42;;
11123;SDS011;5616;42.692;23.312;2024-01-15T00:04:31;136.38;;;55.60;;
11123;SDS011;5616;42.692;23.312;2024-01-15T00:07:01;134.40;;;61.35;;
11123;SDS011;5616;42.692;23.312;2024-01-15T00:09:27;137.65;;;60.30;;
11123;SDS011;5616;42.692;23.312;2024-01-15T00:11:52;154.50;;;60.63;;
11123;SDS011;5616;42.692;23.312;2024-01-15T00:14:18;151.48;;;64.70;;
11123;SDS011;5616;42.692;23.312;2024-01-15T00:19:10;124.90;;;55.15;;
11123;SDS011;5616;42.692;23.312;2024-01-15T00:21:36;147.20;;;65.30;;
11123;SDS011;5616;42.692;23.312;2024-01-15T00:24:01;155.05;;;64.50;;
11123;SDS011;5616;42.692;23.312;2024-01-15T00:26:27;156.35;;;64.65;;
11123;SDS011;5616;42.692;23.312;2024-01-15T00:28:52;157.63;;;64.93;;
11123;SDS011;5616;42.692;23.312;2024-01-15T00:31:18;145.20;;;67.63;;
11123;SDS011;5616;42.692;23.312;2024-01-15T00:33:43;155.55;;;66.03;;
11123;SDS011;5616;42.692;23.312;2024-01-15T00:36:09;156.18;;;65.97;;
11123;SDS011;5616;42.692;23.312;2024-01-15T00:38:34;160.45;;;65.07;;
11123;SDS011;5616;42.692;23.312;2024-01-15T00:41:00;149.02;;;64.38;;
11123;SDS011;5616;42.692;23.312;2024-01-15T00:43:25;148.57;;;65.88;;
11123;SDS011;5616;42.692;23.312;2024-01-15T00:45:50;142.25;;;61.05;;
11123;SDS011;5616;42.692;23.312;2024-01-15T00:48:16;156.73;;;65.07;;
11123;SDS011;5616;42.692;23.312;2024-01-15T00:50:41;144.68;;;63.15;;
11123;SDS011;5616;42.692;23.312;2024-01-15T00:53:07;146.48;;;62.42;;
11123;SDS011;5616;42.692;23.312;2024-01-15T00:55:32;136.23;;;62.20;;
11123;SDS011;5616;42.692;23.312;2024-01-15T00:57:58;149.90;;;65.22;;
11123;SDS011;5616;42.692;23.312;2024-01-15T01:00:23;148.15;;;61.35;;
11123;SDS011;5616;42.692;23.312;2024-01-15T01:02:49;141.35;;;66.75;;
11123;SDS011;5616;42.692;23.312;2024-01-15T01:05:14;146.20;;;61.55;;
11123;SDS011;5616;42.692;23.312;2024-01-15T01:07:39;137.25;;;65.03;;
11123;SDS011;5616;42.692;23.312;2024-01-15T01:10:05;135.65;;;59.08;;
11123;SDS011;5616;42.692;23.312;2024-01-15T01:12:31;140.77;;;62.20;;
11123;SDS011;5616;42.692;23.312;2024-01-15T01:14:57;137.48;;;59.38;;
11123;SDS011;5616;42.692;23.312;2024-01-15T01:17:24;143.70;;;59.88;;
11123;SDS011;5616;42.692;23.312;2024-01-15T01:19:50;145.65;;;60.70;;
11123;SDS011;5616;42.692;23.312;2024-01-15T01:22:15;143.30;;;59.55;;
11123;SDS011;5616;42.692;23.312;2024-01-15T01:24:41;131.05;;;59.45;;
11123;SDS011;5616;42.692;23.312;2024-01-15T01:27:06;137.18;;;58.00;;
11123;SDS011;5616;42.692;23.312;2024-01-15T01:29:32;138.65;;;61.17;;
11123;SDS011;5616;42.692;23.312;2024-01-15T01:31:58;146.55;;;59.35;;
11123;SDS011;5616;42.692;23.312;2024-01-15T01:34:23;132.93;;;57.95;;
11123;SDS011;5616;42.692;23.312;2024-01-15T01:36:49;119.43;;;54.03;;
11123;SDS011;5616;42.692;23.312;2024-01-15T01:39:14;130.00;;;53.80;;
11123;SDS011;5616;42.692;23.312;2024-01-15T01:41:39;125.78;;;54.85;;
11123;SDS011;5616;42.692;23.312;2024-01-15T01:44:05;122.43;;;56.85;;
11123;SDS011;5616;42.692;23.312;2024-01-15T01:46:31;138.80;;;61.03;;
11123;SDS011;5616;42.692;23.312;2024-01-15T01:48:56;139.57;;;59.83;;
11123;SDS011;5616;42.692;23.312;2024-01-15T01:51:23;136.35;;;59.47;;
11123;SDS011;5616;42.692;23.312;2024-01-15T01:53:50;135.30;;;59.45;;
11123;SDS011;5616;42.692;23.312;2024-01-15T01:56:16;135.85;;;61.22;;
11123;SDS011;5616;42.692;23.312;2024-01-15T02:01:08;127.43;;;55.58;;
11123;SDS011;5616;42.692;23.312;2024-01-15T02:03:34;132.15;;;58.85;;
11123;SDS011;5616;42.692;23.312;2024-01-15T02:06:00;123.78;;;55.13;;
11123;SDS011;5616;42.692;23.312;2024-01-15T02:08:26;133.70;;;54.25;;
11123;SDS011;5616;42.692;23.312;2024-01-15T02:10:52;120.72;;;49.55;;
11123;SDS011;5616;42.692;23.312;2024-01-15T02:13:17;121.70;;;49.50;;
11123;SDS011;5616;42.692;23.312;2024-01-15T02:15:44;113.63;;;49.08;;
11123;SDS011;5616;42.692;23.312;2024-01-15T02:18:09;132.23;;;54.88;;
11123;SDS011;5616;42.692;23.312;2024-01-15T02:20:35;121.55;;;52.10;;
11123;SDS011;5616;42.692;23.312;2024-01-15T02:25:29;118.65;;;50.10;;
11123;SDS011;5616;42.692;23.312;2024-01-15T02:27:54;118.00;;;50.25;;
11123;SDS011;5616;42.692;23.312;2024-01-15T02:30:21;102.05;;;47.95;;
11123;SDS011;5616;42.692;23.312;2024-01-15T02:32:47;122.80;;;51.28;;
11123;SDS011;5616;42.692;23.312;2024-01-15T02:35:13;124.50;;;49.88;;
11123;SDS011;5616;42.692;23.312;2024-01-15T02:37:39;111.88;;;50.10;;
11123;SDS011;5616;42.692;23.312;2024-01-15T02:40:04;121.25;;;51.38;;
11123;SDS011;5616;42.692;23.312;2024-01-15T02:42:30;121.28;;;47.92;;
11123;SDS011;5616;42.692;23.312;2024-01-15T02:44:56;111.75;;;46.20;;
11123;SDS011;5616;42.692;23.312;2024-01-15T02:47:21;89.32;;;41.75;;
11123;SDS011;5616;42.692;23.312;2024-01-15T02:49:47;89.22;;;39.28;;
11123;SDS011;5616;42.692;23.312;2024-01-15T02:52:12;109.18;;;43.50;;
11123;SDS011;5616;42.692;23.312;2024-01-15T02:54:37;94.03;;;42.22;;
11123;SDS011;5616;42.692;23.312;2024-01-15T02:57:03;107.35;;;48.10;;
11123;SDS011;5616;42.692;23.312;2024-01-15T02:59:29;114.88;;;51.97;;
11123;SDS011;5616;42.692;23.312;2024-01-15T03:01:54;120.28;;;49.67;;
11123;SDS011;5616;42.692;23.312;2024-01-15T03:04:19;123.15;;;50.42;;
11123;SDS011;5616;42.692;23.312;2024-01-15T03:06:45;122.35;;;54.45;;
11123;SDS011;5616;42.692;23.312;2024-01-15T03:09:10;123.03;;;54.20;;
11123;SDS011;5616;42.692;23.312;2024-01-15T03:11:39;130.20;;;54.75;;
11123;SDS011;5616;42.692;23.312;2024-01-15T03:14:05;119.70;;;51.88;;
11123;SDS011;5616;42.692;23.312;2024-01-15T03:16:30;109.32;;;55.85;;
11123;SDS011;5616;42.692;23.312;2024-01-15T03:18:55;105.47;;;49.30;;
11123;SDS011;5616;42.692;23.312;2024-01-15T03:21:21;120.00;;;49.95;;
11123;SDS011;5616;42.692;23.312;2024-01-15T03:23:46;117.63;;;49.67;;
11123;SDS011;5616;42.692;23.312;2024-01-15T03:26:12;118.43;;;48.20;;
11123;SDS011;5616;42.692;23.312;2024-01-15T03:28:37;114.88;;;50.47;;
11123;SDS011;5616;42.692;23.312;2024-01-15T03:31:03;113.95;;;50.33;;
11123;SDS011;5616;42.692;23.312;2024-01-15T03:33:28;113.60;;;48.88;;
11123;SDS011;5616;42.692;23.312;2024-01-15T03:35:54;109.07;;;46.08;;
11123;SDS011;5616;42.692;23.312;2024-01-15T03:38:19;117.20;;;49.67;;
11123;SDS011;5616;42.692;23.312;2024-01-15T03:40:45;115.15;;;47.30;;
11123;SDS011;5616;42.692;23.312;2024-01-15T03:43:10;114.47;;;48.47;;
11123;SDS011;5616;42.692;23.312;2024-01-15T03:45:36;116.57;;;48.65;;
11123;SDS011;5616;42.692;23.312;2024-01-15T03:48:01;110.95;;;50.05;;
11123;SDS011;5616;42.692;23.312;2024-01-15T03:50:27;124.63;;;48.50;;
11123;SDS011;5616;42.692;23.312;2024-01-15T03:52:52;110.50;;;47.20;;
11123;SDS011;5616;42.692;23.312;2024-01-15T03:55:18;118.72;;;50.67;;
11123;SDS011;5616;42.692;23.312;2024-01-15T03:57:43;115.60;;;47.22;;
11123;SDS011;5616;42.692;23.312;2024-01-15T04:00:09;124.70;;;47.22;;
11123;SDS011;5616;42.692;23.312;2024-01-15T04:02:34;123.07;;;45.42;;
11123;SDS011;5616;42.692;23.312;2024-01-15T04:05:00;106.60;;;44.03;;
11123;SDS011;5616;42.692;23.312;2024-01-15T04:07:25;116.63;;;45.03;;
11123;SDS011;5616;42.692;23.312;2024-01-15T04:09:51;104.68;;;41.90;;
11123;SDS011;5616;42.692;23.312;2024-01-15T04:12:16;99.47;;;41.88;;
11123;SDS011;5616;42.692;23.312;2024-01-15T04:14:42;98.97;;;42.53;;
11123;SDS011;5616;42.692;23.312;2024-01-15T04:17:07;107.65;;;43.30;;
11123;SDS011;5616;42.692;23.312;2024-01-15T04:19:33;107.90;;;41.40;;
11123;SDS011;5616;42.692;23.312;2024-01-15T04:21:58;101.57;;;43.88;;
11123;SDS011;5616;42.692;23.312;2024-01-15T04:24:24;103.22;;;42.95;;
11123;SDS011;5616;42.692;23.312;2024-01-15T04:26:49;98.60;;;43.47;;
11123;SDS011;5616;42.692;23.312;2024-01-15T04:29:14;103.80;;;43.28;;
11123;SDS011;5616;42.692;23.312;2024-01-15T04:31:40;97.35;;;43.53;;
11123;SDS011;5616;42.692;23.312;2024-01-15T04:34:06;104.30;;;44.53;;
11123;SDS011;5616;42.692;23.312;2024-01-15T04:36:31;107.95;;;45.33;;
11123;SDS011;5616;42.692;23.312;2024-01-15T04:38:57;101.75;;;45.00;;
11123;SDS011;5616;42.692;23.312;2024-01-15T04:41:22;117.28;;;45.80;;
11123;SDS011;5616;42.692;23.312;2024-01-15T04:43:48;109.88;;;45.35;;
11123;SDS011;5616;42.692;23.312;2024-01-15T04:46:13;106.47;;;43.92;;
11123;SDS011;5616;42.692;23.312;2024-01-15T04:48:39;106.82;;;45.08;;
11123;SDS011;5616;42.692;23.312;2024-01-15T04:51:04;111.10;;;47.30;;
11123;SDS011;5616;42.692;23.312;2024-01-15T04:55:56;98.28;;;41.78;;
11123;SDS011;5616;42.692;23.312;2024-01-15T04:58:22;114.60;;;46.78;;
11123;SDS011;5616;42.692;23.312;2024-01-15T05:00:50;112.15;;;46.28;;
11123;SDS011;5616;42.692;23.312;2024-01-15T05:03:16;104.40;;;45.33;;
11123;SDS011;5616;42.692;23.312;2024-01-15T05:05:41;105.47;;;50.03;;
11123;SDS011;5616;42.692;23.312;2024-01-15T05:08:07;109.38;;;48.40;;
11123;SDS011;5616;42.692;23.312;2024-01-15T05:10:32;106.05;;;45.05;;
11123;SDS011;5616;42.692;23.312;2024-01-15T05:12:58;123.97;;;48.40;;
11123;SDS011;5616;42.692;23.312;2024-01-15T05:15:23;107.97;;;46.85;;
11123;SDS011;5616;42.692;23.312;2024-01-15T05:17:49;110.05;;;44.58;;
11123;SDS011;5616;42.692;23.312;2024-01-15T05:20:14;92.32;;;39.58;;
11123;SDS011;5616;42.692;23.312;2024-01-15T05:22:40;85.55;;;40.05;;
11123;SDS011;5616;42.692;23.312;2024-01-15T05:25:05;80.10;;;33.55;;
11123;SDS011;5616;42.692;23.312;2024-01-15T05:27:31;77.40;;;34.55;;
11123;SDS011;5616;42.692;23.312;2024-01-15T05:29:56;84.00;;;36.75;;
11123;SDS011;5616;42.692;23.312;2024-01-15T05:32:23;87.03;;;36.30;;
11123;SDS011;5616;42.692;23.312;2024-01-15T05:34:49;84.30;;;35.03;;
11123;SDS011;5616;42.692;23.312;2024-01-15T05:37:14;98.72;;;39.55;;
11123;SDS011;5616;42.692;23.312;2024-01-15T05:39:40;93.50;;;38.95;;
11123;SDS011;5616;42.692;23.312;2024-01-15T05:42:05;89.70;;;38.40;;
11123;SDS011;5616;42.692;23.312;2024-01-15T05:44:31;80.70;;;37.05;;
11123;SDS011;5616;42.692;23.312;2024-01-15T05:46:56;77.45;;;33.95;;
11123;SDS011;5616;42.692;23.312;2024-01-15T05:49:22;80.22;;;36.35;;
11123;SDS011;5616;42.692;23.312;2024-01-15T05:51:47;83.22;;;35.83;;
11123;SDS011;5616;42.692;23.312;2024-01-15T05:54:12;100.20;;;41.17;;
11123;SDS011;5616;42.692;23.312;2024-01-15T05:56:38;107.10;;;45.55;;
11123;SDS011;5616;42.692;23.312;2024-01-15T05:59:03;101.50;;;46.03;;
11123;SDS011;5616;42.692;23.312;2024-01-15T06:01:29;102.50;;;46.22;;
11123;SDS011;5616;42.692;23.312;2024-01-15T06:03:55;115.78;;;50.53;;
11123;SDS011;5616;42.692;23.312;2024-01-15T06:06:20;114.45;;;48.40;;
11123;SDS011;5616;42.692;23.312;2024-01-15T06:08:46;107.15;;;45.53;;
11123;SDS011;5616;42.692;23.312;2024-01-15T06:11:11;116.93;;;55.30;;
11123;SDS011;5616;42.692;23.312;2024-01-15T06:13:37;116.70;;;50.40;;
11123;SDS011;5616;42.692;23.312;2024-01-15T06:16:02;121.63;;;52.30;;
11123;SDS011;5616;42.692;23.312;2024-01-15T06:18:28;112.85;;;48.08;;
11123;SDS011;5616;42.692;23.312;2024-01-15T06:20:53;124.35;;;54.85;;
11123;SDS011;5616;42.692;23.312;2024-01-15T06:23:19;118.03;;;51.95;;
11123;SDS011;5616;42.692;23.312;2024-01-15T06:25:44;121.20;;;55.13;;
11123;SDS011;5616;42.692;23.312;2024-01-15T06:28:10;112.38;;;47.42;;
11123;SDS011;5616;42.692;23.312;2024-01-15T06:30:35;123.72;;;50.30;;
11123;SDS011;5616;42.692;23.312;2024-01-15T06:33:01;117.22;;;50.72;;
11123;SDS011;5616;42.692;23.312;2024-01-15T06:35:26;110.72;;;50.58;;
11123;SDS011;5616;42.692;23.312;2024-01-15T06:37:52;108.80;;;48.40;;
11123;SDS011;5616;42.692;23.312;2024-01-15T06:40:18;116.88;;;52.85;;
11123;SDS011;5616;42.692;23.312;2024-01-15T06:42:43;108.80;;;49.45;;
11123;SDS011;5616;42.692;23.312;2024-01-15T06:45:08;117.65;;;49.22;;
11123;SDS011;5616;42.692;23.312;2024-01-15T06:47:34;121.20;;;52.58;;
11123;SDS011;5616;42.692;23.312;2024-01-15T06:49:59;108.85;;;49.70;;
11123;SDS011;5616;42.692;23.312;2024-01-15T06:52:25;108.35;;;48.90;;
11123;SDS011;5616;42.692;23.312;2024-01-15T06:54:50;112.75;;;47.72;;
11123;SDS011;5616;42.692;23.312;2024-01-15T06:57:16;96.07;;;44.75;;
11123;SDS011;5616;42.692;23.312;2024-01-15T06:59:41;104.25;;;43.88;;
11123;SDS011;5616;42.692;23.312;2024-01-15T07:02:07;96.80;;;42.30;;
11123;SDS011;5616;42.692;23.312;2024-01-15T07:04:32;99.60;;;45.92;;
11123;SDS011;5616;42.692;23.312;2024-01-15T07:06:58;101.70;;;45.95;;
11123;SDS011;5616;42.692;23.312;2024-01-15T07:09:23;99.60;;;44.45;;
11123;SDS011;5616;42.692;23.312;2024-01-15T07:11:49;98.43;;;46.30;;
11123;SDS011;5616;42.692;23.312;2024-01-15T07:14:14;110.05;;;46.75;;
11123;SDS011;5616;42.692;23.312;2024-01-15T07:16:39;106.15;;;46.92;;
11123;SDS011;5616;42.692;23.312;2024-01-15T07:19:05;110.45;;;48.33;;
11123;SDS011;5616;42.692;23.312;2024-01-15T07:21:31;102.82;;;47.95;;
11123;SDS011;5616;42.692;23.312;2024-01-15T07:23:57;110.75;;;49.88;;
11123;SDS011;5616;42.692;23.312;2024-01-15T07:26:22;103.90;;;44.72;;
11123;SDS011;5616;42.692;23.312;2024-01-15T07:28:48;108.85;;;47.85;;
11123;SDS011;5616;42.692;23.312;2024-01-15T07:31:15;104.85;;;43.90;;
11123;SDS011;5616;42.692;23.312;2024-01-15T07:33:41;103.40;;;45.70;;
11123;SDS011;5616;42.692;23.312;2024-01-15T07:36:06;109.85;;;46.95;;
11123;SDS011;5616;42.692;23.312;2024-01-15T07:38:32;111.72;;;47.35;;
11123;SDS011;5616;42.692;23.312;2024-01-15T07:40:58;110.80;;;48.35;;
11123;SDS011;5616;42.692;23.312;2024-01-15T07:43:23;111.07;;;46.83;;
11123;SDS011;5616;42.692;23.312;2024-01-15T07:45:49;112.05;;;48.92;;
11123;SDS011;5616;42.692;23.312;2024-01-15T07:48:14;104.85;;;44.88;;
11123;SDS011;5616;42.692;23.312;2024-01-15T07:50:40;102.47;;;46.38;;
11123;SDS011;5616;42.692;23.312;2024-01-15T07:53:05;103.90;;;47.70;;
11123;SDS011;5616;42.692;23.312;2024-01-15T07:55:31;111.07;;;47.33;;
11123;SDS011;5616;42.692;23.312;2024-01-15T07:57:57;103.60;;;49.75;;
11123;SDS011;5616;42.692;23.312;2024-01-15T08:00:24;107.93;;;47.78;;
11123;SDS011;5616;42.692;23.312;2024-01-15T08:02:50;105.35;;;47.90;;
11123;SDS011;5616;42.692;23.312;2024-01-15T08:05:16;111.28;;;49.85;;
11123;SDS011;5616;42.692;23.312;2024-01-15T08:07:42;101.63;;;45.20;;
11123;SDS011;5616;42.692;23.312;2024-01-15T08:10:07;80.95;;;38.90;;
11123;SDS011;5616;42.692;23.312;2024-01-15T08:12:33;77.07;;;34.75;;
11123;SDS011;5616;42.692;23.312;2024-01-15T08:14:58;70.30;;;34.20;;
11123;SDS011;5616;42.692;23.312;2024-01-15T08:17:24;56.83;;;28.95;;
11123;SDS011;5616;42.692;23.312;2024-01-15T08:19:53;51.33;;;24.77;;
11123;SDS011;5616;42.692;23.312;2024-01-15T08:22:20;53.08;;;26.27;;
11123;SDS011;5616;42.692;23.312;2024-01-15T08:24:45;53.65;;;26.30;;
11123;SDS011;5616;42.692;23.312;2024-01-15T08:27:11;91.07;;;40.17;;
11123;SDS011;5616;42.692;23.312;2024-01-15T08:29:36;111.35;;;51.83;;
11123;SDS011;5616;42.692;23.312;2024-01-15T08:32:02;116.78;;;52.70;;
11123;SDS011;5616;42.692;23.312;2024-01-15T08:34:27;113.90;;;53.47;;
11123;SDS011;5616;42.692;23.312;2024-01-15T08:36:53;99.25;;;48.33;;
11123;SDS011;5616;42.692;23.312;2024-01-15T08:39:18;107.88;;;46.50;;
11123;SDS011;5616;42.692;23.312;2024-01-15T08:41:44;81.30;;;42.05;;
11123;SDS011;5616;42.692;23.312;2024-01-15T08:44:11;70.15;;;32.20;;
11123;SDS011;5616;42.692;23.312;2024-01-15T08:46:37;66.05;;;31.27;;
11123;SDS011;5616;42.692;23.312;2024-01-15T08:49:03;71.55;;;32.70;;
11123;SDS011;5616;42.692;23.312;2024-01-15T08:51:29;67.93;;;35.65;;
11123;SDS011;5616;42.692;23.312;2024-01-15T08:53:56;70.97;;;33.33;;
11123;SDS011;5616;42.692;23.312;2024-01-15T08:56:21;109.03;;;47.55;;
11123;SDS011;5616;42.692;23.312;2024-01-15T08:58:47;114.03;;;51.22;;
11123;SDS011;5616;42.692;23.312;2024-01-15T09:01:13;126.85;;;56.42;;
11123;SDS011;5616;42.692;23.312;2024-01-15T09:03:39;111.47;;;53.38;;
11123;SDS011;5616;42.692;23.312;2024-01-15T09:06:07;112.38;;;52.50;;
11123;SDS011;5616;42.692;23.312;2024-01-15T09:08:32;113.88;;;54.28;;
11123;SDS011;5616;42.692;23.312;2024-01-15T09:10:58;122.13;;;56.30;;
11123;SDS011;5616;42.692;23.312;2024-01-15T09:13:23;135.23;;;63.90;;
11123;SDS011;5616;42.692;23.312;2024-01-15T09:15:49;123.32;;;58.10;;
11123;SDS011;5616;42.692;23.312;2024-01-15T09:18:14;110.45;;;55.60;;
11123;SDS011;5616;42.692;23.312;2024-01-15T09:20:40;103.43;;;47.80;;
11123;SDS011;5616;42.692;23.312;2024-01-15T09:23:05;109.07;;;50.88;;
11123;SDS011;5616;42.692;23.312;2024-01-15T09:25:31;117.85;;;58.00;;
11123;SDS011;5616;42.692;23.312;2024-01-15T09:27:57;109.15;;;54.35;;
11123;SDS011;5616;42.692;23.312;2024-01-15T09:30:23;121.80;;;56.65;;
11123;SDS011;5616;42.692;23.312;2024-01-15T09:32:48;106.97;;;54.25;;
11123;SDS011;5616;42.692;23.312;2024-01-15T09:35:14;140.43;;;61.10;;
11123;SDS011;5616;42.692;23.312;2024-01-15T09:37:40;140.68;;;63.97;;
11123;SDS011;5616;42.692;23.312;2024-01-15T09:40:06;140.60;;;65.32;;
11123;SDS011;5616;42.692;23.312;2024-01-15T09:42:36;146.90;;;70.57;;
11123;SDS011;5616;42.692;23.312;2024-01-15T09:45:02;139.15;;;63.47;;
11123;SDS011;5616;42.692;23.312;2024-01-15T09:47:29;124.57;;;62.25;;
11123;SDS011;5616;42.692;23.312;2024-01-15T09:49:55;125.68;;;57.83;;
11123;SDS011;5616;42.692;23.312;2024-01-15T09:52:23;129.60;;;61.60;;
11123;SDS011;5616;42.692;23.312;2024-01-15T09:54:51;144.27;;;62.08;;
11123;SDS011;5616;42.692;23.312;2024-01-15T09:57:17;135.20;;;65.28;;
11123;SDS011;5616;42.692;23.312;2024-01-15T09:59:43;137.88;;;62.42;;
11123;SDS011;5616;42.692;23.312;2024-01-15T10:04:39;123.07;;;53.25;;
11123;SDS011;5616;42.692;23.312;2024-01-15T10:07:05;127.30;;;55.50;;
11123;SDS011;5616;42.692;23.312;2024-01-15T10:09:33;111.03;;;52.53;;
11123;SDS011;5616;42.692;23.312;2024-01-15T10:11:59;111.35;;;49.90;;
11123;SDS011;5616;42.692;23.312;2024-01-15T10:14:24;121.65;;;50.55;;
11123;SDS011;5616;42.692;23.312;2024-01-15T10:16:50;120.90;;;54.97;;
11123;SDS011;5616;42.692;23.312;2024-01-15T10:19:15;119.25;;;53.17;;
11123;SDS011;5616;42.692;23.312;2024-01-15T10:21:41;108.13;;;47.88;;
11123;SDS011;5616;42.692;23.312;2024-01-15T10:24:06;104.78;;;49.88;;
11123;SDS011;5616;42.692;23.312;2024-01-15T10:26:32;100.20;;;48.10;;
11123;SDS011;5616;42.692;23.312;2024-01-15T10:28:58;114.20;;;49.50;;
11123;SDS011;5616;42.692;23.312;2024-01-15T10:31:25;90.35;;;41.42;;
11123;SDS011;5616;42.692;23.312;2024-01-15T10:33:51;81.85;;;37.20;;
11123;SDS011;5616;42.692;23.312;2024-01-15T10:36:17;78.65;;;36.47;;
11123;SDS011;5616;42.692;23.312;2024-01-15T10:38:43;78.03;;;34.72;;
11123;SDS011;5616;42.692;23.312;2024-01-15T10:41:09;76.75;;;38.20;;
11123;SDS011;5616;42.692;23.312;2024-01-15T10:43:35;75.97;;;33.88;;
11123;SDS011;5616;42.692;23.312;2024-01-15T10:46:00;64.15;;;32.83;;
11123;SDS011;5616;42.692;23.312;2024-01-15T10:48:26;63.78;;;33.80;;
11123;SDS011;5616;42.692;23.312;2024-01-15T10:50:54;58.42;;;29.10;;
11123;SDS011;5616;42.692;23.312;2024-01-15T10:53:19;53.42;;;26.45;;
11123;SDS011;5616;42.692;23.312;2024-01-15T10:55:46;53.33;;;27.35;;
11123;SDS011;5616;42.692;23.312;2024-01-15T10:58:14;52.03;;;28.60;;
11123;SDS011;5616;42.692;23.312;2024-01-15T11:00:40;63.47;;;27.50;;
11123;SDS011;5616;42.692;23.312;2024-01-15T11:03:06;43.47;;;20.63;;
11123;SDS011;5616;42.692;23.312;2024-01-15T11:05:38;42.55;;;21.15;;
11123;SDS011;5616;42.692;23.312;2024-01-15T11:08:07;33.83;;;18.67;;
11123;SDS011;5616;42.692;23.312;2024-01-15T11:10:46;37.90;;;18.92;;
11123;SDS011;5616;42.692;23.312;2024-01-15T11:19:01;39.03;;;21.30;;
11123;SDS011;5616;42.692;23.312;2024-01-15T11:21:23;39.13;;;19.70;;
11123;SDS011;5616;42.692;23.312;2024-01-15T11:24:00;41.45;;;20.17;;
11123;SDS011;5616;42.692;23.312;2024-01-15T11:28:57;43.08;;;20.35;;
11123;SDS011;5616;42.692;23.312;2024-01-15T11:32:10;37.15;;;18.90;;
11123;SDS011;5616;42.692;23.312;2024-01-15T11:34:19;39.08;;;20.67;;
11123;SDS011;5616;42.692;23.312;2024-01-15T11:41:52;38.38;;;19.55;;
11123;SDS011;5616;42.692;23.312;2024-01-15T11:44:19;37.25;;;19.40;;
11123;SDS011;5616;42.692;23.312;2024-01-15T11:46:47;33.97;;;18.25;;
11123;SDS011;5616;42.692;23.312;2024-01-15T11:52:11;35.30;;;19.35;;
11123;SDS011;5616;42.692;23.312;2024-01-15T11:54:39;44.95;;;20.52;;
11123;SDS011;5616;42.692;23.312;2024-01-15T11:57:10;42.45;;;19.60;;
11123;SDS011;5616;42.692;23.312;2024-01-15T11:59:43;39.90;;;20.52;;
11123;SDS011;5616;42.692;23.312;2024-01-15T12:02:09;46.67;;;19.90;;
11123;SDS011;5616;42.692;23.312;2024-01-15T12:04:38;39.42;;;19.30;;
11123;SDS011;5616;42.692;23.312;2024-01-15T12:07:04;37.53;;;19.17;;
11123;SDS011;5616;42.692;23.312;2024-01-15T12:09:30;43.13;;;19.80;;
11123;SDS011;5616;42.692;23.312;2024-01-15T12:11:57;40.40;;;20.17;;
11123;SDS011;5616;42.692;23.312;2024-01-15T12:14:32;40.67;;;21.38;;
11123;SDS011;5616;42.692;23.312;2024-01-15T12:16:57;41.72;;;20.38;;
11123;SDS011;5616;42.692;23.312;2024-01-15T12:19:23;38.50;;;19.25;;
11123;SDS011;5616;42.692;23.312;2024-01-15T12:21:50;36.92;;;18.65;;
11123;SDS011;5616;42.692;23.312;2024-01-15T12:24:16;36.88;;;19.35;;
11123;SDS011;5616;42.692;23.312;2024-01-15T12:26:42;40.15;;;19.70;;
11123;SDS011;5616;42.692;23.312;2024-01-15T12:29:08;38.35;;;19.45;;
11123;SDS011;5616;42.692;23.312;2024-01-15T12:31:36;36.47;;;20.40;;
11123;SDS011;5616;42.692;23.312;2024-01-15T12:34:01;37.10;;;20.08;;
11123;SDS011;5616;42.692;23.312;2024-01-15T12:36:30;37.63;;;18.88;;
11123;SDS011;5616;42.692;23.312;2024-01-15T12:38:59;41.03;;;19.40;;
11123;SDS011;5616;42.692;23.312;2024-01-15T12:41:24;43.60;;;21.88;;
11123;SDS011;5616;42.692;23.312;2024-01-15T12:43:50;43.75;;;20.73;;
11123;SDS011;5616;42.692;23.312;2024-01-15T12:46:16;41.30;;;20.98;;
11123;SDS011;5616;42.692;23.312;2024-01-15T12:48:41;44.90;;;23.08;;
11123;SDS011;5616;42.692;23.312;2024-01-15T12:51:07;35.72;;;20.55;;
11123;SDS011;5616;42.692;23.312;2024-01-15T12:53:33;42.53;;;20.58;;
11123;SDS011;5616;42.692;23.312;2024-01-15T12:55:58;36.97;;;20.58;;
11123;SDS011;5616;42.692;23.312;2024-01-15T12:58:24;39.72;;;20.10;;
11123;SDS011;5616;42.692;23.312;2024-01-15T13:00:49;44.28;;;21.38;;
11123;SDS011;5616;42.692;23.312;2024-01-15T13:03:15;44.95;;;20.80;;
11123;SDS011;5616;42.692;23.312;2024-01-15T13:05:41;40.17;;;20.23;;
11123;SDS011;5616;42.692;23.312;2024-01-15T13:08:06;39.10;;;21.88;;
11123;SDS011;5616;42.692;23.312;2024-01-15T13:10:32;42.17;;;23.02;;
11123;SDS011;5616;42.692;23.312;2024-01-15T13:12:58;40.95;;;22.70;;
11123;SDS011;5616;42.692;23.312;2024-01-15T13:15:23;39.42;;;21.38;;
11123;SDS011;5616;42.692;23.312;2024-01-15T13:17:49;51.17;;;21.60;;
11123;SDS011;5616;42.692;23.312;2024-01-15T13:20:14;42.05;;;21.95;;
11123;SDS011;5616;42.692;23.312;2024-01-15T13:22:39;35.63;;;20.95;;
11123;SDS011;5616;42.692;23.312;2024-01-15T13:25:08;41.15;;;21.52;;
11123;SDS011;5616;42.692;23.312;2024-01-15T13:27:34;44.30;;;21.23;;
11123;SDS011;5616;42.692;23.312;2024-01-15T13:30:00;41.72;;;22.23;;
11123;SDS011;5616;42.692;23.312;2024-01-15T13:32:27;36.35;;;20.23;;
11123;SDS011;5616;42.692;23.312;2024-01-15T13:34:56;46.08;;;21.55;;
11123;SDS011;5616;42.692;23.312;2024-01-15T13:37:22;40.50;;;21.17;;
11123;SDS011;5616;42.692;23.312;2024-01-15T13:39:50;42.78;;;20.33;;
11123;SDS011;5616;42.692;23.312;2024-01-15T13:42:16;47.75;;;21.05;;
11123;SDS011;5616;42.692;23.312;2024-01-15T13:44:42;38.53;;;21.45;;
11123;SDS011;5616;42.692;23.312;2024-01-15T13:47:07;47.38;;;24.50;;
11123;SDS011;5616;42.692;23.312;2024-01-15T13:49:34;42.70;;;20.73;;
11123;SDS011;5616;42.692;23.312;2024-01-15T13:52:01;45.33;;;21.88;;
11123;SDS011;5616;42.692;23.312;2024-01-15T13:54:29;40.95;;;19.42;;
11123;SDS011;5616;42.692;23.312;2024-01-15T13:56:55;35.45;;;18.92;;
11123;SDS011;5616;42.692;23.312;2024-01-15T13:59:20;39.35;;;20.35;;
11123;SDS011;5616;42.692;23.312;2024-01-15T14:01:46;35.13;;;18.65;;
11123;SDS011;5616;42.692;23.312;2024-01-15T14:04:12;39.17;;;18.77;;
11123;SDS011;5616;42.692;23.312;2024-01-15T14:06:38;38.40;;;17.13;;
11123;SDS011;5616;42.692;23.312;2024-01-15T14:09:04;35.53;;;17.98;;
11123;SDS011;5616;42.692;23.312;2024-01-15T14:11:30;41.05;;;19.02;;
11123;SDS011;5616;42.692;23.312;2024-01-15T14:13:56;45.72;;;19.90;;
11123;SDS011;5616;42.692;23.312;2024-01-15T14:16:22;41.42;;;20.10;;
11123;SDS011;5616;42.692;23.312;2024-01-15T14:18:47;45.05;;;19.80;;
11123;SDS011;5616;42.692;23.312;2024-01-15T14:21:13;45.38;;;19.00;;
11123;SDS011;5616;42.692;23.312;2024-01-15T14:23:38;35.45;;;17.33;;
11123;SDS011;5616;42.692;23.312;2024-01-15T14:26:04;42.47;;;19.15;;
11123;SDS011;5616;42.692;23.312;2024-01-15T14:28:29;37.75;;;20.20;;
11123;SDS011;5616;42.692;23.312;2024-01-15T14:30:55;36.17;;;18.20;;
11123;SDS011;5616;42.692;23.312;2024-01-15T14:33:23;32.65;;;17.95;;
11123;SDS011;5616;42.692;23.312;2024-01-15T14:35:49;35.08;;;20.40;;